If you wish to contribute or participate in the discussions about articles you are invited to join SKYbrary as a registered user

 Actions

San Carlos De Bariloche Airport

From SKYbrary Wiki

SAZS
Airport
ICAO: SAZS – IATA: BRC
Summary
Name San Carlos De Bariloche Airport
Region South America and Caribbean
Territory Argentina AR.gif
Location San Carlos De Bariloche, Rio Negro
Serving San Carlos De Bariloche
Elevation 845.515 m
2,774 ft
2,774 ft845.515 m
Type medium airport
Coordinates 41° 9' 4.22" S, 71° 9' 27.15" W
Runways
Designator Length Width Surface ROPS
11/29 2348 m7,703.412 ft
48 m157.48 ft
ASP yes/yes


METAR
Observation SAZS 140200Z 14009KT CAVOK 05/M11 Q1026
Station Bariloche Aerodrome
Date/Time 14 October 2019 02:00:00
Wind direction 140°
Wind speed 09 kts
Lowest cloud amount clouds and visibility OK
Temperature 5°C
Dew point
Humidity 30%
QNH 1026 hPa
Weather condition n/a

Airport serving San Carlos de Bariloche, Rio Negro Province, Argentina. Also known as Teniente Luis Candelaria Airport.

Climatology

Temperate Mediterranean climate (Köppen climate classification Csb).

Maps

Terrain

Loading map...

Airport Layout

Loading map...


Accidents & Serious Incidents at or in vicinity of SAZS

None on SKYbrary